TimeMDT,TemperatureF,Dew PointF,Humidity,Sea Level PressureIn,VisibilityMPH,Wind Direction,Wind SpeedMPH,Gust SpeedMPH,PrecipitationIn,Events,Conditions,WindDirDegrees,DateUTC
12:15 AM,33.8,32.0,93,30.00,7.0,Calm,Calm,-,N/A,Snow,Light Snow,0,2014-03-11 06:15:00
12:35 AM,33.8,30.2,87,30.01,7.0,West,5.8,-,N/A,Snow,Light Snow,280,2014-03-11 06:35:00
12:55 AM,33.8,32.0,93,30.00,10.0,NNW,3.5,-,N/A,,Overcast,330,2014-03-11 06:55:00
1:15 AM,33.8,28.4,81,30.02,10.0,WSW,8.1,-,N/A,,Overcast,240,2014-03-11 07:15:00
1:35 AM,33.8,28.4,81,30.02,10.0,SW,8.1,-,N/A,,Overcast,220,2014-03-11 07:35:00
1:55 AM,33.8,28.4,81,30.02,10.0,SW,12.7,-,N/A,,Overcast,220,2014-03-11 07:55:00
2:15 AM,32.0,26.6,80,30.03,10.0,SW,10.4,-,N/A,,Overcast,230,2014-03-11 08:15:00
2:35 AM,32.0,26.6,80,30.03,10.0,SW,4.6,-,N/A,,Overcast,220,2014-03-11 08:35:00
2:55 AM,32.0,26.6,80,30.03,10.0,WSW,3.5,-,N/A,Snow,Light Snow,240,2014-03-11 08:55:00
3:15 AM,32.0,26.6,80,30.03,10.0,Calm,Calm,-,N/A,Snow,Light Snow,0,2014-03-11 09:15:00
3:35 AM,32.0,26.6,80,30.03,10.0,Calm,Calm,-,N/A,,Overcast,0,2014-03-11 09:35:00
3:55 AM,32.0,28.4,87,30.03,4.0,WSW,6.9,-,N/A,Snow,Light Snow,240,2014-03-11 09:55:00
4:15 AM,32.0,28.4,87,30.03,2.0,WSW,3.5,-,N/A,Snow,Light Snow,250,2014-03-11 10:15:00
4:35 AM,32.0,30.2,93,30.03,4.0,Calm,Calm,-,N/A,Snow,Light Snow,0,2014-03-11 10:35:00
4:55 AM,32.0,30.2,93,30.03,7.0,West,5.8,-,N/A,Snow,Light Snow,270,2014-03-11 10:55:00
5:15 AM,32.0,28.4,87,30.03,10.0,WSW,10.4,-,N/A,Snow,Light Snow,240,2014-03-11 11:15:00
5:35 AM,32.0,26.6,80,30.05,4.0,Calm,Calm,-,N/A,Snow,Light Snow,0,2014-03-11 11:35:00
5:55 AM,32.0,28.4,87,30.05,10.0,ESE,5.8,-,N/A,,Overcast,120,2014-03-11 11:55:00
6:15 AM,32.0,26.6,80,30.05,7.0,Calm,Calm,-,N/A,Snow,Light Snow,0,2014-03-11 12:15:00
6:35 AM,32.0,28.4,87,30.06,3.0,West,3.5,-,N/A,Snow,Light Snow,270,2014-03-11 12:35:00
6:55 AM,30.2,28.4,93,30.06,2.0,Calm,Calm,-,N/A,Snow,Light Snow,0,2014-03-11 12:55:00
7:15 AM,30.2,28.4,93,30.07,5.0,North,3.5,-,N/A,Snow,Light Snow,10,2014-03-11 13:15:00
7:35 AM,30.2,28.4,93,30.08,7.0,Calm,Calm,-,N/A,Snow,Light Snow,0,2014-03-11 13:35:00
7:55 AM,30.2,28.4,93,30.09,4.0,Calm,Calm,-,N/A,Snow,Light Snow,0,2014-03-11 13:55:00
8:15 AM,30.2,30.2,100,30.10,3.0,Calm,Calm,-,N/A,Snow,Light Snow,0,2014-03-11 14:15:00
8:35 AM,30.2,30.2,100,30.11,4.0,Calm,Calm,-,N/A,Snow,Light Snow,0,2014-03-11 14:35:00
8:55 AM,30.2,30.2,100,30.12,5.0,Calm,Calm,-,N/A,Snow,Light Snow,0,2014-03-11 14:55:00
9:15 AM,30.2,28.4,93,30.13,7.0,Calm,Calm,-,N/A,Snow,Light Snow,0,2014-03-11 15:15:00
9:35 AM,32.0,28.4,87,30.13,10.0,Calm,Calm,-,N/A,,Mostly Cloudy,0,2014-03-11 15:35:00
9:55 AM,32.0,28.4,87,30.14,10.0,Calm,Calm,-,N/A,,Overcast,0,2014-03-11 15:55:00
10:15 AM,32.0,30.2,93,30.16,10.0,Calm,Calm,-,N/A,,Scattered Clouds,0,2014-03-11 16:15:00
10:35 AM,33.8,28.4,81,30.16,10.0,Calm,Calm,-,N/A,,Scattered Clouds,0,2014-03-11 16:35:00
10:55 AM,33.8,28.4,81,30.16,10.0,Calm,Calm,-,N/A,,Scattered Clouds,0,2014-03-11 16:55:00
11:15 AM,35.6,28.4,75,30.16,10.0,ESE,3.5,-,N/A,,Scattered Clouds,110,2014-03-11 17:15:00
11:35 AM,35.6,26.6,70,30.17,10.0,Calm,Calm,-,N/A,,Scattered Clouds,0,2014-03-11 17:35:00
11:55 AM,37.4,24.8,60,30.17,10.0,NE,5.8,-,N/A,,Scattered Clouds,50,2014-03-11 17:55:00
12:15 PM,41.0,23.0,49,30.17,10.0,NNE,18.4,23.0,N/A,,Scattered Clouds,30,2014-03-11 18:15:00
12:35 PM,37.4,23.0,56,30.17,10.0,NNE,17.3,25.3,N/A,,Overcast,30,2014-03-11 18:35:00
12:55 PM,41.0,24.8,53,30.18,10.0,NNE,23.0,27.6,N/A,,Overcast,30,2014-03-11 18:55:00
1:15 PM,37.4,26.6,65,30.18,10.0,NNE,17.3,24.2,N/A,,Mostly Cloudy,20,2014-03-11 19:15:00
1:35 PM,39.2,26.6,61,30.19,10.0,NNE,17.3,23.0,N/A,,Scattered Clouds,20,2014-03-11 19:35:00
1:55 PM,41.0,26.6,57,30.20,10.0,NNE,13.8,21.9,N/A,,Scattered Clouds,30,2014-03-11 19:55:00
2:15 PM,41.0,23.0,49,30.19,10.0,NNE,17.3,-,N/A,,Scattered Clouds,20,2014-03-11 20:15:00
2:35 PM,41.0,21.2,45,30.19,10.0,NNE,13.8,20.7,N/A,,Clear,20,2014-03-11 20:35:00
2:55 PM,41.0,21.2,45,30.20,10.0,NNE,13.8,18.4,N/A,,Clear,30,2014-03-11 20:55:00
3:15 PM,41.0,23.0,49,30.20,10.0,NNE,17.3,27.6,N/A,,Clear,30,2014-03-11 21:15:00
3:35 PM,41.0,26.6,57,30.20,10.0,NNE,17.3,23.0,N/A,,Clear,30,2014-03-11 21:35:00
3:55 PM,41.0,26.6,57,30.21,10.0,NNE,18.4,21.9,N/A,,Clear,20,2014-03-11 21:55:00
4:15 PM,41.0,26.6,57,30.21,10.0,North,17.3,24.2,N/A,,Clear,10,2014-03-11 22:15:00
4:35 PM,41.0,26.6,57,30.21,10.0,North,16.1,20.7,N/A,,Clear,10,2014-03-11 22:35:00
4:55 PM,41.0,23.0,49,30.21,10.0,NNE,13.8,24.2,N/A,,Clear,20,2014-03-11 22:55:00
5:15 PM,41.0,23.0,49,30.21,10.0,North,16.1,23.0,N/A,,Clear,10,2014-03-11 23:15:00
5:35 PM,41.0,21.2,45,30.21,10.0,North,11.5,-,N/A,,Clear,350,2014-03-11 23:35:00
5:55 PM,42.8,23.0,46,30.21,10.0,North,16.1,20.7,N/A,,Mostly Cloudy,360,2014-03-11 23:55:00
6:15 PM,41.0,26.6,57,30.24,7.0,East,10.4,20.7,N/A,,Unknown,80,2014-03-12 00:15:00
6:35 PM,33.8,30.2,87,30.25,7.0,SE,15.0,-,N/A,Snow,Light Snow,130,2014-03-12 00:35:00
6:55 PM,33.8,30.2,87,30.25,10.0,SSE,10.4,-,N/A,Snow,Light Snow,160,2014-03-12 00:55:00
7:15 PM,33.8,30.2,87,30.25,5.0,South,3.5,-,N/A,Snow,Light Snow,190,2014-03-12 01:15:00
7:35 PM,33.8,30.2,87,30.26,10.0,SW,3.5,-,N/A,,Mostly Cloudy,230,2014-03-12 01:35:00
7:55 PM,32.0,28.4,87,30.27,10.0,WSW,3.5,-,N/A,,Overcast,240,2014-03-12 01:55:00
8:15 PM,32.0,28.4,87,30.28,10.0,ENE,4.6,-,N/A,,Mostly Cloudy,70,2014-03-12 02:15:00
8:35 PM,32.0,28.4,87,30.29,10.0,East,5.8,-,N/A,,Mostly Cloudy,90,2014-03-12 02:35:00
8:55 PM,32.0,28.4,87,30.29,10.0,East,5.8,-,N/A,,Mostly Cloudy,100,2014-03-12 02:55:00
9:15 PM,32.0,28.4,87,30.30,10.0,NE,3.5,-,N/A,,Scattered Clouds,50,2014-03-12 03:15:00
9:35 PM,30.2,26.6,86,30.31,10.0,NE,4.6,-,N/A,,Clear,50,2014-03-12 03:35:00
9:55 PM,28.4,23.0,80,30.31,10.0,East,3.5,-,N/A,,Clear,90,2014-03-12 03:55:00
10:15 PM,28.4,24.8,86,30.32,10.0,East,4.6,-,N/A,,Scattered Clouds,90,2014-03-12 04:15:00
10:35 PM,28.4,23.0,80,30.32,10.0,East,6.9,-,N/A,,Clear,100,2014-03-12 04:35:00
10:55 PM,28.4,23.0,80,30.32,10.0,East,5.8,-,N/A,,Clear,100,2014-03-12 04:55:00
11:15 PM,26.6,21.2,80,30.33,10.0,ESE,6.9,-,N/A,,Clear,110,2014-03-12 05:15:00
11:35 PM,24.8,21.2,86,30.33,10.0,ESE,4.6,-,N/A,,Clear,120,2014-03-12 05:35:00
11:55 PM,26.6,21.2,80,30.33,10.0,Calm,Calm,-,N/A,,Scattered Clouds,0,2014-03-12 05:55:00